Time;durP1;ratioP1;P1;durP2;ratioP2;P2;SDS_P1;SDS_P2;PMS_P1;PMS_P2;Temp;Humidity;BMP_temperature;BMP_pressure;BME280_temperature;BME280_humidity;BME280_pressure;Samples;Min_cycle;Max_cycle;Signal;HPM_P1;HPM_P2
2023/04/26 00:02:10;;;;;;;5.80;4.00;;;8.90;95.80;;;;;;5012323;28;20941;-80
2023/04/26 00:04:39;;;;;;;5.03;3.77;;;8.70;96.10;;;;;;4995272;28;20417;-79
2023/04/26 00:07:06;;;;;;;5.87;3.97;;;8.60;96.20;;;;;;5010946;28;20450;-79
2023/04/26 00:09:32;;;;;;;4.27;3.87;;;8.60;96.40;;;;;;4995264;28;20820;-80
2023/04/26 00:11:58;;;;;;;3.83;3.50;;;8.60;97.00;;;;;;5012898;28;20460;-79
2023/04/26 00:14:24;;;;;;;5.03;4.07;;;8.60;97.10;;;;;;5011053;28;20418;-79
2023/04/26 00:16:50;;;;;;;4.10;3.70;;;8.50;97.10;;;;;;5012781;28;20272;-80
2023/04/26 00:19:17;;;;;;;7.77;4.40;;;8.40;97.50;;;;;;5011032;28;20429;-80
2023/04/26 00:21:42;;;;;;;9.00;4.43;;;8.30;97.60;;;;;;5012447;28;20186;-80
2023/04/26 00:24:08;;;;;;;6.67;4.57;;;8.30;98.00;;;;;;5011805;28;20406;-79
2023/04/26 00:26:34;;;;;;;4.97;4.53;;;8.30;98.30;;;;;;5012056;28;20456;-79
2023/04/26 00:29:03;;;;;;;5.67;5.13;;;8.30;98.60;;;;;;5011152;28;20187;-78
2023/04/26 00:31:28;;;;;;;5.80;5.20;;;8.30;98.60;;;;;;5011819;28;20467;-79
2023/04/26 00:33:54;;;;;;;6.10;5.53;;;8.30;98.50;;;;;;5012542;28;20406;-79
2023/04/26 00:36:20;;;;;;;8.43;5.50;;;8.40;98.30;;;;;;5011957;28;20175;-79
2023/04/26 00:38:46;;;;;;;6.00;5.40;;;8.40;98.10;;;;;;5012495;28;20297;-79
2023/04/26 00:41:12;;;;;;;5.90;5.33;;;8.30;97.80;;;;;;5011792;28;20179;-79
2023/04/26 00:43:39;;;;;;;5.40;5.00;;;8.30;97.50;;;;;;4995004;28;20210;-79
2023/04/26 00:46:06;;;;;;;6.93;4.80;;;8.30;97.60;;;;;;5011611;28;20406;-79
2023/04/26 00:48:33;;;;;;;4.83;4.43;;;8.30;97.90;;;;;;5011063;28;20497;-79
2023/04/26 00:51:00;;;;;;;6.63;4.83;;;8.20;97.90;;;;;;5012357;28;20477;-79
2023/04/26 00:53:26;;;;;;;6.07;4.70;;;8.20;98.00;;;;;;5011442;28;20417;-79
2023/04/26 00:55:53;;;;;;;5.73;5.23;;;8.10;98.20;;;;;;5011598;28;20438;-79
2023/04/26 00:58:19;;;;;;;5.13;4.63;;;8.10;98.40;;;;;;4993836;28;20505;-79
2023/04/26 01:00:45;;;;;;;6.47;5.03;;;8.00;98.60;;;;;;4994792;28;20432;-79
2023/04/26 01:03:11;;;;;;;9.73;5.77;;;8.00;98.80;;;;;;5010532;28;20513;-79
2023/04/26 01:05:37;;;;;;;5.80;5.20;;;8.00;98.60;;;;;;5011562;28;20426;-79
2023/04/26 01:08:03;;;;;;;6.13;5.30;;;7.80;98.60;;;;;;4994083;28;20481;-78
2023/04/26 01:10:31;;;;;;;7.20;5.50;;;7.80;98.90;;;;;;4995977;28;20458;-79
2023/04/26 01:12:58;;;;;;;6.20;5.60;;;7.80;99.40;;;;;;5016149;28;20746;-79
2023/04/26 01:15:27;;;;;;;7.20;5.20;;;7.70;99.50;;;;;;5015322;28;20851;-79
2023/04/26 01:17:53;;;;;;;6.17;4.90;;;7.70;99.80;;;;;;5014716;28;20433;-79
2023/04/26 01:20:19;;;;;;;7.70;4.80;;;7.60;99.90;;;;;;5015268;28;20414;-79
2023/04/26 01:22:45;;;;;;;6.93;5.40;;;7.60;99.90;;;;;;5016165;28;20410;-79
2023/04/26 01:25:11;;;;;;;7.07;5.20;;;7.60;99.90;;;;;;5015168;28;20413;-79
2023/04/26 01:27:37;;;;;;;6.30;4.40;;;7.60;99.90;;;;;;5015806;28;20206;-79
2023/04/26 01:30:04;;;;;;;13.20;5.90;;;7.50;99.90;;;;;;5015736;28;20755;-79
2023/04/26 01:32:30;;;;;;;5.37;4.87;;;7.40;99.90;;;;;;5014579;28;20507;-79
2023/04/26 01:34:55;;;;;;;8.70;4.97;;;7.40;99.90;;;;;;5014989;28;20939;-79
2023/04/26 01:37:21;;;;;;;6.33;4.97;;;7.40;99.90;;;;;;5014702;28;20694;-79
2023/04/26 01:39:47;;;;;;;9.77;4.60;;;7.30;99.90;;;;;;5015926;28;20417;-79
2023/04/26 01:42:13;;;;;;;8.17;5.43;;;7.30;99.90;;;;;;5014057;28;20191;-79
2023/04/26 01:44:39;;;;;;;7.60;4.37;;;7.30;99.90;;;;;;4998034;28;20175;-79
2023/04/26 01:47:05;;;;;;;6.70;5.20;;;7.30;99.90;;;;;;5015445;28;20627;-79
2023/04/26 01:49:31;;;;;;;10.33;4.70;;;7.30;99.90;;;;;;5014675;28;20865;-79
2023/04/26 01:51:58;;;;;;;7.10;5.77;;;7.20;99.90;;;;;;4997816;28;20835;-79
2023/04/26 01:54:24;;;;;;;6.33;4.80;;;7.20;99.90;;;;;;5013572;28;20480;-79
2023/04/26 01:56:50;;;;;;;7.17;4.67;;;7.20;99.90;;;;;;5015314;28;20402;-79
2023/04/26 01:59:16;;;;;;;5.33;4.70;;;7.10;99.90;;;;;;4996869;28;20893;-79
2023/04/26 02:01:42;;;;;;;5.40;4.70;;;7.10;99.90;;;;;;5015246;28;20383;-79
2023/04/26 02:04:08;;;;;;;5.60;4.43;;;7.10;99.90;;;;;;5014901;28;20186;-79
2023/04/26 02:06:34;;;;;;;5.47;4.97;;;7.10;99.90;;;;;;4997689;28;20468;-79
2023/04/26 02:09:00;;;;;;;5.50;5.00;;;7.10;99.90;;;;;;4997466;28;20425;-79
2023/04/26 02:11:25;;;;;;;10.77;5.97;;;7.10;99.90;;;;;;5014335;28;20776;-79
2023/04/26 02:13:52;;;;;;;5.27;4.80;;;7.00;99.90;;;;;;5014090;28;20522;-79
2023/04/26 02:16:18;;;;;;;5.30;4.60;;;7.00;99.90;;;;;;5014159;28;20189;-79
2023/04/26 02:18:43;;;;;;;5.27;4.60;;;7.00;99.90;;;;;;5014965;28;20402;-79
2023/04/26 02:21:12;;;;;;;6.40;4.70;;;7.00;99.90;;;;;;5013701;28;20177;-79
2023/04/26 02:23:38;;;;;;;7.53;4.80;;;7.00;99.90;;;;;;5014962;28;20177;-79
2023/04/26 02:26:04;;;;;;;6.40;5.23;;;6.90;99.90;;;;;;5014705;28;20404;-79
2023/04/26 02:28:30;;;;;;;4.83;4.43;;;6.90;99.90;;;;;;5013930;28;20208;-79
2023/04/26 02:30:57;;;;;;;7.17;4.23;;;6.90;99.90;;;;;;5014027;28;20798;-79
2023/04/26 02:33:23;;;;;;;7.60;4.87;;;6.80;99.90;;;;;;5013851;28;20404;-79
2023/04/26 02:35:48;;;;;;;6.70;4.57;;;6.80;99.90;;;;;;5014826;28;20398;-79
2023/04/26 02:38:14;;;;;;;5.03;4.50;;;6.80;99.90;;;;;;5012246;28;20477;-79
2023/04/26 02:40:40;;;;;;;9.23;5.17;;;6.80;99.90;;;;;;5014394;28;20178;-78
2023/04/26 02:43:06;;;;;;;5.07;4.60;;;6.80;99.90;;;;;;5013453;28;20181;-80
2023/04/26 02:45:32;;;;;;;5.50;4.73;;;6.80;99.90;;;;;;5013577;28;20288;-79
2023/04/26 02:47:57;;;;;;;5.17;4.27;;;6.80;99.90;;;;;;5013174;28;20544;-79
2023/04/26 02:50:23;;;;;;;7.33;4.73;;;6.70;99.90;;;;;;5013317;28;20180;-79
2023/04/26 02:52:49;;;;;;;4.97;4.53;;;6.70;99.90;;;;;;5014333;28;20199;-79
2023/04/26 02:55:15;;;;;;;10.93;4.60;;;6.60;99.90;;;;;;5013400;28;20176;-79
2023/04/26 02:57:40;;;;;;;5.20;4.80;;;6.60;99.90;;;;;;4995723;28;20709;-78
2023/04/26 03:00:07;;;;;;;5.17;4.37;;;6.60;99.90;;;;;;5014422;28;20411;-79
2023/04/26 03:02:32;;;;;;;7.70;4.20;;;6.60;99.90;;;;;;5012366;28;20209;-79
2023/04/26 03:04:58;;;;;;;6.27;4.50;;;6.60;99.90;;;;;;4995813;28;20893;-79
2023/04/26 03:07:24;;;;;;;5.30;4.27;;;6.60;99.90;;;;;;4995595;28;20224;-79
2023/04/26 03:09:50;;;;;;;5.40;4.40;;;6.60;99.90;;;;;;5013861;28;20181;-78
2023/04/26 03:12:16;;;;;;;4.97;4.27;;;6.60;99.90;;;;;;4979396;28;20434;-78
2023/04/26 03:14:41;;;;;;;5.83;4.30;;;6.60;99.90;;;;;;4996136;28;20173;-78
2023/04/26 03:17:07;;;;;;;6.47;4.80;;;6.60;99.90;;;;;;4987308;28;20207;-78
2023/04/26 03:19:33;;;;;;;6.47;5.23;;;6.60;99.90;;;;;;4975896;28;20259;-79
2023/04/26 03:21:59;;;;;;;6.90;5.20;;;6.60;99.90;;;;;;4982872;28;20516;-77
2023/04/26 03:24:25;;;;;;;7.37;5.47;;;6.60;99.90;;;;;;5012854;28;20279;-78
2023/04/26 03:26:51;;;;;;;6.00;4.83;;;6.60;99.90;;;;;;4980803;28;20212;-79
2023/04/26 03:29:17;;;;;;;5.83;4.87;;;6.60;99.90;;;;;;4993325;28;20489;-79
2023/04/26 03:31:43;;;;;;;6.53;4.60;;;6.60;99.90;;;;;;4976532;28;20480;-78
2023/04/26 03:34:09;;;;;;;5.47;4.87;;;6.60;99.90;;;;;;4977913;28;20260;-78
2023/04/26 03:36:34;;;;;;;6.33;4.70;;;6.60;99.90;;;;;;4994153;28;20407;-78
2023/04/26 03:39:00;;;;;;;10.37;5.90;;;6.50;99.90;;;;;;5013803;28;20434;-78
2023/04/26 03:41:26;;;;;;;6.53;5.17;;;6.60;99.90;;;;;;4994959;28;20275;-79
2023/04/26 03:43:52;;;;;;;7.23;6.53;;;6.50;99.90;;;;;;4995703;28;20504;-78
2023/04/26 03:46:18;;;;;;;5.90;5.30;;;6.50;99.90;;;;;;4994877;28;20275;-79
2023/04/26 03:48:43;;;;;;;5.53;5.03;;;6.50;99.90;;;;;;5013264;28;20173;-78
2023/04/26 03:51:09;;;;;;;7.73;6.93;;;6.50;99.90;;;;;;5012420;28;20669;-78
2023/04/26 03:53:35;;;;;;;8.77;6.00;;;6.50;99.90;;;;;;4994813;28;20267;-78
2023/04/26 03:56:00;;;;;;;8.63;6.73;;;6.50;99.90;;;;;;5013407;28;20209;-78
2023/04/26 03:58:26;;;;;;;6.40;5.87;;;6.50;99.90;;;;;;5012629;28;20177;-78
2023/04/26 04:00:56;;;;;;;7.70;5.47;;;6.50;99.90;;;;;;4995778;28;20254;-78
2023/04/26 04:03:22;;;;;;;8.27;5.23;;;6.50;99.90;;;;;;5012218;28;20173;-78
2023/04/26 04:05:47;;;;;;;6.97;6.37;;;6.40;99.90;;;;;;4995476;28;20369;-78
2023/04/26 04:08:14;;;;;;;9.17;5.77;;;6.40;99.90;;;;;;4995072;28;20223;-78
2023/04/26 04:10:41;;;;;;;7.20;6.50;;;6.40;99.90;;;;;;4978662;28;20281;-78
2023/04/26 04:13:07;;;;;;;7.57;6.90;;;6.40;99.90;;;;;;5012970;28;20516;-78
2023/04/26 04:15:33;;;;;;;9.43;5.90;;;6.40;99.90;;;;;;4993549;28;21335;-78
2023/04/26 04:17:59;;;;;;;8.07;7.13;;;6.50;99.90;;;;;;5012652;28;20551;-78
2023/04/26 04:20:24;;;;;;;7.60;5.00;;;6.40;99.90;;;;;;5011928;28;20177;-78
2023/04/26 04:22:50;;;;;;;6.10;5.53;;;6.40;99.90;;;;;;4990243;28;20342;-78
2023/04/26 04:25:16;;;;;;;11.10;5.90;;;6.30;99.90;;;;;;4977528;28;20186;-79
2023/04/26 04:27:44;;;;;;;9.03;5.70;;;6.30;99.90;;;;;;4978394;28;20545;-78
2023/04/26 04:30:11;;;;;;;5.80;4.73;;;6.30;99.90;;;;;;4993817;28;20462;-78
2023/04/26 04:32:38;;;;;;;5.70;5.17;;;6.30;99.90;;;;;;5011837;28;20408;-78
2023/04/26 04:35:04;;;;;;;8.10;6.20;;;6.30;99.90;;;;;;5011788;28;20843;-78
2023/04/26 04:37:33;;;;;;;8.53;5.80;;;6.20;99.90;;;;;;4992921;28;21187;-79
2023/04/26 04:39:59;;;;;;;5.03;4.63;;;6.40;99.90;;;;;;5012481;28;20941;-79
2023/04/26 04:42:27;;;;;;;8.90;5.82;;;6.30;99.90;;;;;;5011733;28;20453;-79
2023/04/26 04:44:53;;;;;;;6.73;5.80;;;6.30;99.90;;;;;;5012588;28;20524;-79
2023/04/26 04:47:19;;;;;;;6.87;5.80;;;6.30;99.90;;;;;;5011861;28;20959;-79
2023/04/26 04:49:44;;;;;;;7.20;6.40;;;6.40;99.90;;;;;;4994694;28;20466;-79
2023/04/26 04:52:10;;;;;;;7.87;7.17;;;6.30;99.90;;;;;;5012690;28;20180;-79
2023/04/26 04:54:36;;;;;;;7.57;5.77;;;6.40;99.90;;;;;;4994367;28;20179;-79
2023/04/26 04:57:02;;;;;;;6.57;5.80;;;6.40;99.90;;;;;;5012028;28;20421;-79
2023/04/26 04:59:28;;;;;;;7.47;6.00;;;6.40;99.90;;;;;;4994371;28;20176;-79
2023/04/26 05:01:54;;;;;;;9.10;6.20;;;6.40;99.90;;;;;;5012421;28;20717;-79
2023/04/26 05:04:23;;;;;;;8.17;7.23;;;6.50;99.90;;;;;;5005807;28;20234;-79
2023/04/26 05:06:50;;;;;;;7.90;5.87;;;6.50;99.90;;;;;;4994881;28;20441;-79
2023/04/26 05:09:16;;;;;;;7.20;6.50;;;6.50;99.90;;;;;;5012046;28;20409;-79
2023/04/26 05:11:42;;;;;;;14.30;10.63;;;6.50;99.90;;;;;;4977526;28;20422;-79
2023/04/26 05:14:07;;;;;;;9.47;7.43;;;7.00;99.90;;;;;;5012204;28;20404;-79
2023/04/26 05:16:33;;;;;;;10.33;9.40;;;7.80;99.90;;;;;;5011364;28;20201;-79
2023/04/26 05:18:59;;;;;;;7.57;6.83;;;8.50;99.90;;;;;;4994699;28;20186;-79
2023/04/26 05:21:25;;;;;;;7.93;7.10;;;9.20;99.90;;;;;;4977542;28;20183;-78
2023/04/26 05:23:50;;;;;;;9.57;7.10;;;9.70;99.90;;;;;;4994245;28;20249;-79
2023/04/26 05:26:16;;;;;;;8.70;7.50;;;10.20;99.90;;;;;;5012386;28;20194;-79
2023/04/26 05:28:42;;;;;;;8.40;7.60;;;10.70;99.90;;;;;;4993659;28;20218;-78
2023/04/26 05:31:08;;;;;;;10.73;7.90;;;11.10;99.60;;;;;;4978368;28;20185;-79
2023/04/26 05:33:34;;;;;;;8.83;8.03;;;11.50;97.70;;;;;;4993524;28;20224;-79
2023/04/26 05:36:00;;;;;;;10.63;8.30;;;11.80;96.00;;;;;;4994606;28;20862;-79
2023/04/26 05:38:26;;;;;;;10.30;7.50;;;12.10;94.60;;;;;;5010842;28;20491;-79
2023/04/26 05:40:52;;;;;;;10.63;8.20;;;12.30;93.50;;;;;;4994436;28;20445;-79
2023/04/26 05:43:18;;;;;;;8.20;7.07;;;12.50;92.10;;;;;;4994183;28;20415;-79
2023/04/26 05:45:55;;;;;;;9.77;8.47;;;12.70;91.00;;;;;;5011341;28;20258;-79
2023/04/26 05:48:22;;;;;;;9.57;8.60;;;12.90;90.50;;;;;;5011710;28;20453;-81
2023/04/26 05:50:48;;;;;;;10.43;8.60;;;13.00;90.10;;;;;;5010637;28;20428;-79
2023/04/26 05:53:14;;;;;;;10.23;9.10;;;13.20;88.10;;;;;;5011840;28;20418;-78
2023/04/26 05:55:41;;;;;;;13.70;9.80;;;13.20;86.10;;;;;;4993255;28;20422;-79
2023/04/26 05:58:07;;;;;;;10.87;8.17;;;13.30;86.40;;;;;;5015137;28;20468;-79
2023/04/26 06:00:33;;;;;;;10.10;7.80;;;13.40;84.60;;;;;;5014762;28;20763;-79
2023/04/26 06:03:02;;;;;;;12.60;10.00;;;13.50;84.50;;;;;;4998193;28;20574;-79
2023/04/26 06:05:28;;;;;;;9.37;8.37;;;13.70;85.80;;;;;;4995365;28;20436;-79
2023/04/26 06:07:53;;;;;;;13.07;8.83;;;13.90;86.70;;;;;;5010697;28;20476;-80
2023/04/26 06:10:20;;;;;;;10.07;9.00;;;14.00;86.30;;;;;;5004521;28;20181;-79
2023/04/26 06:12:46;;;;;;;12.13;9.10;;;14.20;86.00;;;;;;4996964;28;20190;-79
2023/04/26 06:15:12;;;;;;;10.77;9.30;;;14.30;85.50;;;;;;5014692;28;20428;-79
2023/04/26 06:17:37;;;;;;;12.77;9.93;;;14.50;82.90;;;;;;5014257;28;20421;-79
2023/04/26 06:20:06;;;;;;;9.93;8.93;;;14.50;82.00;;;;;;5011544;28;20261;-79
2023/04/26 06:22:32;;;;;;;12.70;8.60;;;14.60;81.80;;;;;;4997155;28;20174;-79
2023/04/26 06:24:58;;;;;;;12.10;10.23;;;14.70;81.30;;;;;;5015472;28;20506;-79
2023/04/26 06:27:24;;;;;;;14.50;10.57;;;14.80;81.60;;;;;;4997004;28;20206;-79
2023/04/26 06:29:50;;;;;;;11.70;9.33;;;14.90;80.70;;;;;;5013527;28;20440;-79
2023/04/26 06:32:16;;;;;;;13.93;12.40;;;15.10;80.00;;;;;;5013903;28;20186;-79
2023/04/26 06:34:44;;;;;;;13.90;11.93;;;15.20;79.60;;;;;;5013935;28;20913;-79
2023/04/26 06:37:10;;;;;;;13.00;11.23;;;15.30;79.10;;;;;;4996615;28;20223;-80
2023/04/26 06:39:39;;;;;;;17.33;10.00;;;15.40;79.10;;;;;;4990061;28;20428;-79
2023/04/26 06:42:05;;;;;;;14.53;9.67;;;15.50;79.20;;;;;;4962062;28;20429;-79
2023/04/26 06:44:31;;;;;;;10.67;9.53;;;15.50;79.80;;;;;;4994144;28;20409;-79
2023/04/26 06:46:57;;;;;;;13.47;9.90;;;15.60;79.20;;;;;;5008081;28;20845;-79
2023/04/26 06:49:23;;;;;;;10.37;8.90;;;15.70;77.80;;;;;;5010759;28;20431;-81
2023/04/26 06:51:51;;;;;;;11.53;8.20;;;15.80;77.80;;;;;;4995978;28;20231;-79
2023/04/26 06:54:17;;;;;;;10.47;7.80;;;15.90;77.70;;;;;;4997288;28;20404;-79
2023/04/26 06:56:43;;;;;;;11.80;8.00;;;15.90;76.60;;;;;;4995248;28;20437;-79
2023/04/26 06:59:09;;;;;;;11.33;7.67;;;16.00;76.30;;;;;;5014694;28;20528;-79
2023/04/26 07:01:35;;;;;;;11.03;7.17;;;16.00;76.00;;;;;;5014023;28;20412;-79
2023/04/26 07:04:09;;;;;;;12.93;8.63;;;16.10;75.50;;;;;;4980272;28;20202;-80
2023/04/26 07:06:36;;;;;;;7.53;6.83;;;16.10;75.00;;;;;;4995895;28;20231;-79
2023/04/26 07:09:02;;;;;;;8.07;6.87;;;16.10;74.40;;;;;;4990358;28;20869;-79
2023/04/26 07:11:27;;;;;;;12.53;7.10;;;16.10;73.70;;;;;;5011248;28;20433;-80
2023/04/26 07:13:54;;;;;;;13.33;8.20;;;15.90;72.60;;;;;;4979350;28;20443;-82
2023/04/26 07:16:20;;;;;;;11.80;8.03;;;15.40;72.60;;;;;;4996438;28;20203;-81
2023/04/26 07:18:47;;;;;;;9.13;5.90;;;15.00;74.10;;;;;;5013447;28;20419;-80
2023/04/26 07:21:13;;;;;;;9.43;5.67;;;14.50;75.70;;;;;;4996745;28;20426;-80
2023/04/26 07:23:39;;;;;;;6.00;4.47;;;14.10;77.10;;;;;;5013134;28;20416;-79
2023/04/26 07:26:05;;;;;;;6.60;5.80;;;13.80;79.60;;;;;;4996622;28;20483;-79
2023/04/26 07:28:31;;;;;;;9.10;6.93;;;13.50;78.80;;;;;;5013390;28;20488;-79
2023/04/26 07:30:57;;;;;;;6.03;4.23;;;13.20;79.30;;;;;;5013894;28;20176;-80
2023/04/26 07:33:23;;;;;;;6.73;6.00;;;13.00;79.60;;;;;;4996374;28;20517;-79
2023/04/26 07:35:57;;;;;;;4.77;4.30;;;12.80;81.00;;;;;;5013673;28;20421;-79
2023/04/26 07:38:23;;;;;;;5.37;4.87;;;12.60;81.30;;;;;;4993407;28;20875;-80
2023/04/26 07:40:49;;;;;;;5.60;4.70;;;12.50;82.50;;;;;;5009628;28;21036;-79
2023/04/26 07:43:15;;;;;;;7.90;5.30;;;12.30;81.30;;;;;;5013285;28;20411;-79
2023/04/26 07:45:41;;;;;;;5.20;4.70;;;12.20;82.70;;;;;;5012637;28;20400;-79
2023/04/26 07:48:07;;;;;;;6.83;4.83;;;12.10;83.50;;;;;;5013563;28;20539;-79
2023/04/26 07:50:33;;;;;;;8.07;4.80;;;12.10;84.00;;;;;;5012755;28;20405;-79
2023/04/26 07:52:59;;;;;;;6.93;4.53;;;12.00;84.50;;;;;;4995974;28;20178;-79
2023/04/26 07:55:26;;;;;;;7.33;4.30;;;12.00;84.80;;;;;;5013626;28;20777;-79
2023/04/26 07:57:51;;;;;;;6.33;4.83;;;11.90;85.90;;;;;;5013626;28;20425;-80
2023/04/26 08:00:18;;;;;;;3.70;3.37;;;11.90;87.10;;;;;;5013593;28;20409;-79
2023/04/26 08:02:47;;;;;;;4.97;4.10;;;12.00;83.80;;;;;;5012663;28;20539;-79
2023/04/26 08:05:14;;;;;;;7.07;4.20;;;12.00;81.20;;;;;;5013354;28;20414;-79
2023/04/26 08:07:40;;;;;;;6.60;6.00;;;12.00;81.00;;;;;;5012505;28;20890;-80
2023/04/26 08:10:07;;;;;;;5.23;4.93;;;12.00;81.20;;;;;;5013469;28;20494;-79
2023/04/26 08:12:34;;;;;;;5.23;3.57;;;12.00;85.20;;;;;;5012749;28;20403;-79
2023/04/26 08:15:00;;;;;;;4.33;3.57;;;12.00;84.20;;;;;;5013038;28;20408;-79
2023/04/26 08:17:26;;;;;;;4.73;3.20;;;12.10;84.60;;;;;;5013335;28;20419;-79
2023/04/26 08:19:52;;;;;;;4.03;3.63;;;12.10;80.00;;;;;;5012093;28;20404;-80
2023/04/26 08:22:18;;;;;;;4.23;3.67;;;12.20;80.20;;;;;;5013548;28;20872;-79
2023/04/26 08:24:53;;;;;;;9.07;4.80;;;12.20;80.70;;;;;;5012639;28;20255;-79
2023/04/26 08:27:19;;;;;;;2.57;2.33;;;12.30;76.00;;;;;;5012786;28;21014;-79
2023/04/26 08:29:45;;;;;;;6.03;5.60;;;12.20;75.80;;;;;;5012609;28;20396;-80
2023/04/26 08:32:11;;;;;;;5.40;4.30;;;12.20;74.90;;;;;;5013050;28;20463;-79
2023/04/26 08:34:37;;;;;;;3.97;3.57;;;12.10;78.50;;;;;;5012195;28;20412;-80
2023/04/26 08:37:04;;;;;;;3.43;3.13;;;12.10;78.20;;;;;;4994914;28;20232;-79
2023/04/26 08:39:30;;;;;;;6.93;4.00;;;12.10;77.60;;;;;;5012511;28;20235;-80
2023/04/26 08:42:02;;;;;;;3.63;3.40;;;12.20;78.90;;;;;;5012727;28;20398;-80
2023/04/26 08:44:30;;;;;;;9.87;3.00;;;12.30;80.40;;;;;;4995423;28;20723;-79
2023/04/26 08:46:55;;;;;;;3.33;3.13;;;12.30;78.20;;;;;;5012820;28;20444;-80
2023/04/26 08:49:30;;;;;;;5.77;5.27;;;12.30;79.00;;;;;;5012851;28;20724;-79
2023/04/26 08:51:57;;;;;;;5.10;3.80;;;12.40;77.10;;;;;;5012890;28;20189;-78
2023/04/26 08:54:24;;;;;;;5.00;4.70;;;12.30;76.30;;;;;;4979006;28;20421;-78
2023/04/26 08:56:51;;;;;;;5.30;4.00;;;12.30;75.10;;;;;;5012244;28;20469;-78
2023/04/26 08:59:18;;;;;;;3.97;3.60;;;12.20;79.00;;;;;;5013125;28;20456;-78
2023/04/26 09:01:44;;;;;;;4.97;4.50;;;12.20;77.10;;;;;;4994669;28;20450;-78
2023/04/26 09:04:11;;;;;;;5.33;4.27;;;12.20;77.40;;;;;;5012875;28;20871;-78
2023/04/26 09:06:37;;;;;;;4.93;4.40;;;12.20;77.00;;;;;;5012099;28;20462;-79
2023/04/26 09:09:06;;;;;;;4.57;4.27;;;12.20;75.80;;;;;;4978544;28;20417;-78
2023/04/26 09:11:58;;;;;;;5.10;3.90;;;12.20;74.90;;;;;;5012105;28;20467;-78
2023/04/26 09:14:25;;;;;;;3.83;3.43;;;12.20;76.60;;;;;;5012529;28;20463;-78
2023/04/26 09:16:51;;;;;;;3.93;3.50;;;12.20;77.00;;;;;;5012135;28;20414;-79
2023/04/26 09:19:33;;;;;;;4.23;3.40;;;12.20;75.70;;;;;;5012636;28;20420;-78
2023/04/26 09:21:58;;;;;;;7.17;4.80;;;12.30;76.30;;;;;;5012957;28;20397;-78
2023/04/26 09:24:25;;;;;;;7.53;4.17;;;12.20;74.30;;;;;;4995318;28;20424;-78
2023/04/26 09:27:02;;;;;;;4.93;4.43;;;12.20;74.30;;;;;;5011638;28;20210;-79
2023/04/26 09:29:27;;;;;;;4.50;4.10;;;12.10;74.80;;;;;;5012637;28;20449;-79
2023/04/26 09:31:53;;;;;;;5.60;4.03;;;12.20;75.60;;;;;;4995659;28;20410;-78
2023/04/26 09:34:19;;;;;;;5.63;4.30;;;12.20;78.10;;;;;;5016360;28;20436;-78
2023/04/26 09:36:55;;;;;;;5.27;4.37;;;12.20;77.10;;;;;;4997890;28;20494;-78
2023/04/26 09:39:39;;;;;;;3.63;3.33;;;12.40;77.70;;;;;;5015896;28;20926;-78
2023/04/26 09:42:06;;;;;;;5.70;4.10;;;12.40;77.10;;;;;;5016327;28;20403;-79
2023/04/26 09:44:32;;;;;;;4.53;3.57;;;12.50;76.80;;;;;;4998507;28;20963;-78
2023/04/26 09:47:07;;;;;;;4.23;3.70;;;12.60;76.60;;;;;;5016123;28;20495;-78
2023/04/26 09:49:44;;;;;;;4.77;4.27;;;12.60;77.50;;;;;;5015840;28;20404;-78
2023/04/26 09:52:10;;;;;;;4.93;4.33;;;12.70;76.60;;;;;;4982626;28;20396;-78
2023/04/26 09:54:40;;;;;;;4.43;4.03;;;12.80;73.80;;;;;;5015559;28;20416;-78
2023/04/26 09:57:06;;;;;;;4.50;4.10;;;12.90;74.00;;;;;;5016005;28;20417;-78
2023/04/26 09:59:45;;;;;;;3.87;3.57;;;12.90;74.20;;;;;;4998295;28;20409;-79
2023/04/26 10:02:22;;;;;;;4.30;3.73;;;12.90;70.60;;;;;;4998424;28;20590;-78
2023/04/26 10:04:50;;;;;;;3.63;2.83;;;12.90;68.60;;;;;;5014949;28;20731;-79
2023/04/26 10:07:18;;;;;;;4.67;4.43;;;12.80;66.50;;;;;;4998033;28;20462;-78
2023/04/26 10:09:45;;;;;;;4.03;3.83;;;12.80;66.30;;;;;;5015095;28;20404;-79
2023/04/26 10:12:13;;;;;;;4.47;4.17;;;12.70;65.40;;;;;;4998031;28;20415;-79
2023/04/26 10:14:39;;;;;;;8.73;4.30;;;12.70;67.60;;;;;;5015021;28;20404;-78
2023/04/26 10:17:05;;;;;;;4.23;3.80;;;12.60;70.40;;;;;;4998319;28;20497;-77
2023/04/26 10:19:36;;;;;;;5.53;4.50;;;12.50;70.70;;;;;;5015352;28;20406;-78
2023/04/26 10:22:15;;;;;;;4.10;3.73;;;12.50;72.40;;;;;;4997976;28;20771;-78
2023/04/26 10:24:43;;;;;;;6.27;3.90;;;12.50;71.10;;;;;;4997264;28;20463;-78
2023/04/26 10:27:08;;;;;;;4.23;3.87;;;12.40;72.00;;;;;;5014977;28;20793;-78
2023/04/26 10:30:06;;;;;;;4.30;3.90;;;12.40;70.30;;;;;;5015273;28;20406;-78
2023/04/26 10:32:32;;;;;;;5.23;4.47;;;12.40;67.20;;;;;;4997870;28;20256;-78
2023/04/26 10:35:11;;;;;;;4.10;3.80;;;12.50;68.20;;;;;;5014589;28;20495;-78
2023/04/26 10:37:59;;;;;;;3.83;3.60;;;12.50;70.30;;;;;;5013998;28;20304;-78
2023/04/26 10:40:25;;;;;;;6.27;4.07;;;12.40;68.00;;;;;;4997629;28;20416;-78
2023/04/26 10:43:10;;;;;;;4.70;4.37;;;12.40;67.60;;;;;;5013901;28;20898;-78
2023/04/26 10:45:38;;;;;;;4.97;4.07;;;12.50;67.60;;;;;;5014911;28;20181;-78
2023/04/26 10:48:16;;;;;;;5.57;4.23;;;12.50;68.20;;;;;;4997039;28;20837;-78
2023/04/26 10:51:00;;;;;;;4.10;3.90;;;12.40;69.30;;;;;;5013768;28;20518;-78
2023/04/26 10:53:52;;;;;;;4.73;4.20;;;12.40;70.90;;;;;;5014614;28;20403;-78
2023/04/26 10:56:26;;;;;;;4.53;4.13;;;12.30;71.50;;;;;;5011174;28;20833;-78
2023/04/26 10:59:09;;;;;;;4.93;4.47;;;12.40;72.20;;;;;;5014021;28;20410;-78
2023/04/26 11:01:35;;;;;;;5.33;4.93;;;12.40;72.10;;;;;;4997114;28;20506;-78
2023/04/26 11:04:07;;;;;;;6.93;5.20;;;12.40;73.40;;;;;;4996433;28;20556;-78
2023/04/26 11:06:50;;;;;;;5.87;5.37;;;12.30;72.80;;;;;;5014559;28;20158;-78
2023/04/26 11:09:47;;;;;;;5.37;4.77;;;12.30;73.50;;;;;;5014702;28;20431;-78
2023/04/26 11:12:15;;;;;;;8.70;4.20;;;12.30;76.70;;;;;;5014512;28;20406;-78
2023/04/26 11:14:42;;;;;;;4.20;3.90;;;12.40;74.50;;;;;;5013469;28;20478;-78
2023/04/26 11:17:11;;;;;;;4.57;4.30;;;12.40;73.30;;;;;;5014108;28;20416;-78
2023/04/26 11:19:41;;;;;;;6.00;5.50;;;12.50;74.10;;;;;;5014234;28;20412;-78
2023/04/26 11:22:07;;;;;;;6.07;5.57;;;12.60;78.70;;;;;;5014258;28;20411;-78
2023/04/26 11:24:35;;;;;;;6.60;6.00;;;12.90;82.40;;;;;;5014152;28;20427;-78
2023/04/26 11:27:08;;;;;;;7.03;5.90;;;13.30;78.90;;;;;;5013214;28;20457;-78
2023/04/26 11:29:33;;;;;;;6.73;6.10;;;13.70;77.90;;;;;;5014159;28;20748;-78
2023/04/26 11:31:59;;;;;;;6.13;5.53;;;14.10;76.70;;;;;;5013558;28;20414;-79
2023/04/26 11:34:32;;;;;;;7.20;6.53;;;14.40;70.50;;;;;;5014006;28;20173;-78
2023/04/26 11:36:58;;;;;;;6.60;5.90;;;14.50;69.70;;;;;;4995530;28;20229;-78
2023/04/26 11:39:24;;;;;;;6.40;5.90;;;14.60;68.90;;;;;;5013682;28;20424;-78
2023/04/26 11:41:50;;;;;;;5.97;5.47;;;14.60;65.30;;;;;;5012718;28;20410;-78
2023/04/26 11:44:19;;;;;;;6.50;5.60;;;14.50;64.70;;;;;;5013801;28;20174;-78
2023/04/26 11:46:49;;;;;;;6.83;6.13;;;14.50;66.80;;;;;;5013063;28;20758;-78
2023/04/26 11:49:16;;;;;;;7.83;7.23;;;14.40;63.70;;;;;;5013533;28;20470;-78
2023/04/26 11:51:43;;;;;;;8.90;8.30;;;14.30;62.20;;;;;;4979358;28;20955;-78
2023/04/26 11:54:10;;;;;;;6.43;5.57;;;14.20;63.70;;;;;;4995035;28;20450;-78
2023/04/26 11:56:36;;;;;;;5.90;5.40;;;14.20;64.80;;;;;;5013694;28;20425;-78
2023/04/26 11:59:02;;;;;;;8.50;7.80;;;14.10;67.00;;;;;;4995454;28;20411;-78
2023/04/26 12:01:29;;;;;;;8.17;7.33;;;14.10;66.90;;;;;;4995909;28;20230;-78
2023/04/26 12:03:57;;;;;;;8.70;7.90;;;14.10;65.40;;;;;;4995554;28;20945;-78
2023/04/26 12:06:42;;;;;;;8.07;6.20;;;14.10;65.60;;;;;;5013131;28;20413;-78
2023/04/26 12:09:08;;;;;;;7.90;6.83;;;14.00;68.30;;;;;;5013056;28;20442;-78
2023/04/26 12:11:34;;;;;;;8.20;7.10;;;14.10;66.80;;;;;;4995753;28;20493;-78
2023/04/26 12:14:00;;;;;;;6.27;5.63;;;14.20;68.40;;;;;;4995048;28;20425;-79
2023/04/26 12:16:26;;;;;;;7.37;6.70;;;14.30;71.40;;;;;;5013453;28;20451;-79
2023/04/26 12:18:53;;;;;;;6.30;5.80;;;14.70;73.60;;;;;;4995183;28;20451;-78
2023/04/26 12:21:19;;;;;;;7.13;6.50;;;15.00;72.50;;;;;;5013377;28;20186;-78
2023/04/26 12:23:48;;;;;;;7.70;7.00;;;15.20;70.50;;;;;;5012559;28;20504;-78
2023/04/26 12:26:14;;;;;;;7.43;6.37;;;15.40;64.70;;;;;;5012991;28;20407;-78
2023/04/26 12:28:40;;;;;;;6.53;6.03;;;15.40;62.00;;;;;;5012823;28;20459;-78
2023/04/26 12:31:07;;;;;;;7.10;6.53;;;15.30;62.60;;;;;;4994099;28;20475;-78
2023/04/26 12:33:37;;;;;;;6.87;6.00;;;15.30;61.30;;;;;;5012125;28;20412;-78
2023/04/26 12:36:11;;;;;;;7.90;6.10;;;15.10;61.10;;;;;;5012673;28;20409;-78
2023/04/26 12:38:37;;;;;;;6.17;5.77;;;14.90;60.40;;;;;;5012984;28;20455;-78
2023/04/26 12:41:04;;;;;;;7.23;6.53;;;14.80;61.00;;;;;;5012377;28;20678;-78
2023/04/26 12:43:30;;;;;;;7.70;6.27;;;14.80;61.30;;;;;;5012875;28;20416;-78
2023/04/26 12:45:55;;;;;;;6.63;5.80;;;14.70;60.60;;;;;;5012372;28;20400;-78
2023/04/26 12:48:21;;;;;;;6.97;6.33;;;14.60;62.80;;;;;;5012922;28;20556;-78
2023/04/26 12:50:47;;;;;;;6.63;6.13;;;14.50;64.10;;;;;;5012210;28;20179;-78
2023/04/26 12:53:13;;;;;;;6.70;6.10;;;14.40;66.00;;;;;;5013085;28;20175;-80